sensor_id;sensor_type;location;lat;lon;timestamp;P1;durP1;ratioP1;P2;durP2;ratioP2
57832;SDS011;43667;53.036;6.740;2022-12-10T00:02:08;85.85;;;40.45;;
57832;SDS011;43667;53.036;6.740;2022-12-10T00:04:34;82.25;;;40.05;;
57832;SDS011;43667;53.036;6.740;2022-12-10T00:06:59;86.43;;;39.67;;
57832;SDS011;43667;53.036;6.740;2022-12-10T00:09:25;87.47;;;40.53;;
57832;SDS011;43667;53.036;6.740;2022-12-10T00:11:50;88.95;;;40.92;;
57832;SDS011;43667;53.036;6.740;2022-12-10T00:14:16;90.38;;;41.10;;
57832;SDS011;43667;53.036;6.740;2022-12-10T00:16:42;92.72;;;42.90;;
57832;SDS011;43667;53.036;6.740;2022-12-10T00:19:08;88.60;;;40.10;;
57832;SDS011;43667;53.036;6.740;2022-12-10T00:21:34;84.93;;;42.22;;
57832;SDS011;43667;53.036;6.740;2022-12-10T00:24:01;89.43;;;40.38;;
57832;SDS011;43667;53.036;6.740;2022-12-10T00:26:31;91.82;;;41.75;;
57832;SDS011;43667;53.036;6.740;2022-12-10T00:29:00;88.13;;;42.70;;
57832;SDS011;43667;53.036;6.740;2022-12-10T00:31:28;93.43;;;41.97;;
57832;SDS011;43667;53.036;6.740;2022-12-10T00:33:56;93.82;;;43.30;;
57832;SDS011;43667;53.036;6.740;2022-12-10T00:36:44;94.50;;;43.35;;
57832;SDS011;43667;53.036;6.740;2022-12-10T00:39:10;86.25;;;41.97;;
57832;SDS011;43667;53.036;6.740;2022-12-10T00:41:37;95.90;;;44.65;;
57832;SDS011;43667;53.036;6.740;2022-12-10T00:44:03;94.20;;;44.72;;
57832;SDS011;43667;53.036;6.740;2022-12-10T00:46:28;95.43;;;43.92;;
57832;SDS011;43667;53.036;6.740;2022-12-10T00:48:54;98.55;;;44.03;;
57832;SDS011;43667;53.036;6.740;2022-12-10T00:51:21;89.78;;;42.25;;
57832;SDS011;43667;53.036;6.740;2022-12-10T00:53:48;99.13;;;44.60;;
57832;SDS011;43667;53.036;6.740;2022-12-10T00:56:16;94.25;;;43.08;;
57832;SDS011;43667;53.036;6.740;2022-12-10T00:58:43;96.40;;;42.67;;
57832;SDS011;43667;53.036;6.740;2022-12-10T01:01:13;96.78;;;44.63;;
57832;SDS011;43667;53.036;6.740;2022-12-10T01:03:43;89.35;;;42.08;;
57832;SDS011;43667;53.036;6.740;2022-12-10T01:06:14;90.20;;;43.33;;
57832;SDS011;43667;53.036;6.740;2022-12-10T01:08:41;91.47;;;42.75;;
57832;SDS011;43667;53.036;6.740;2022-12-10T01:11:08;100.82;;;44.00;;
57832;SDS011;43667;53.036;6.740;2022-12-10T01:13:35;92.15;;;44.15;;
57832;SDS011;43667;53.036;6.740;2022-12-10T01:16:02;94.00;;;41.80;;
57832;SDS011;43667;53.036;6.740;2022-12-10T01:18:29;89.45;;;41.67;;
57832;SDS011;43667;53.036;6.740;2022-12-10T01:20:54;84.93;;;42.15;;
57832;SDS011;43667;53.036;6.740;2022-12-10T01:23:24;85.38;;;42.38;;
57832;SDS011;43667;53.036;6.740;2022-12-10T01:25:50;89.97;;;42.47;;
57832;SDS011;43667;53.036;6.740;2022-12-10T01:28:15;89.85;;;41.00;;
57832;SDS011;43667;53.036;6.740;2022-12-10T01:30:41;98.55;;;43.65;;
57832;SDS011;43667;53.036;6.740;2022-12-10T01:33:06;90.55;;;42.88;;
57832;SDS011;43667;53.036;6.740;2022-12-10T01:35:35;97.15;;;42.90;;
57832;SDS011;43667;53.036;6.740;2022-12-10T01:38:02;88.40;;;40.58;;
57832;SDS011;43667;53.036;6.740;2022-12-10T01:40:27;89.60;;;42.30;;
57832;SDS011;43667;53.036;6.740;2022-12-10T01:42:53;92.88;;;43.72;;
57832;SDS011;43667;53.036;6.740;2022-12-10T01:45:18;97.35;;;45.53;;
57832;SDS011;43667;53.036;6.740;2022-12-10T01:47:44;88.13;;;42.13;;
57832;SDS011;43667;53.036;6.740;2022-12-10T01:50:10;91.65;;;43.08;;
57832;SDS011;43667;53.036;6.740;2022-12-10T01:52:35;90.03;;;44.10;;
57832;SDS011;43667;53.036;6.740;2022-12-10T01:55:05;95.85;;;44.78;;
57832;SDS011;43667;53.036;6.740;2022-12-10T01:57:32;104.53;;;43.22;;
57832;SDS011;43667;53.036;6.740;2022-12-10T01:59:59;103.18;;;45.25;;
57832;SDS011;43667;53.036;6.740;2022-12-10T02:07:59;96.32;;;44.53;;
57832;SDS011;43667;53.036;6.740;2022-12-10T02:10:52;96.18;;;45.38;;
57832;SDS011;43667;53.036;6.740;2022-12-10T02:13:39;97.95;;;46.35;;
57832;SDS011;43667;53.036;6.740;2022-12-10T02:16:10;97.43;;;44.42;;
57832;SDS011;43667;53.036;6.740;2022-12-10T02:18:49;99.93;;;44.60;;
57832;SDS011;43667;53.036;6.740;2022-12-10T02:21:26;110.55;;;46.42;;
57832;SDS011;43667;53.036;6.740;2022-12-10T02:24:05;105.57;;;45.45;;
57832;SDS011;43667;53.036;6.740;2022-12-10T02:26:47;106.97;;;46.15;;
57832;SDS011;43667;53.036;6.740;2022-12-10T02:29:22;103.80;;;45.60;;
57832;SDS011;43667;53.036;6.740;2022-12-10T02:31:54;103.78;;;46.80;;
57832;SDS011;43667;53.036;6.740;2022-12-10T02:34:24;104.35;;;46.90;;
57832;SDS011;43667;53.036;6.740;2022-12-10T02:36:55;108.88;;;48.70;;
57832;SDS011;43667;53.036;6.740;2022-12-10T02:39:26;110.97;;;48.85;;
57832;SDS011;43667;53.036;6.740;2022-12-10T02:41:56;107.85;;;49.05;;
57832;SDS011;43667;53.036;6.740;2022-12-10T02:44:24;110.45;;;50.35;;
57832;SDS011;43667;53.036;6.740;2022-12-10T02:46:54;109.95;;;47.40;;
57832;SDS011;43667;53.036;6.740;2022-12-10T02:49:21;112.03;;;49.58;;
57832;SDS011;43667;53.036;6.740;2022-12-10T02:51:48;109.32;;;48.45;;
57832;SDS011;43667;53.036;6.740;2022-12-10T02:57:00;101.60;;;46.33;;
57832;SDS011;43667;53.036;6.740;2022-12-10T03:00:03;103.88;;;46.80;;
57832;SDS011;43667;53.036;6.740;2022-12-10T03:05:46;109.47;;;48.70;;
57832;SDS011;43667;53.036;6.740;2022-12-10T03:08:32;107.35;;;48.20;;
57832;SDS011;43667;53.036;6.740;2022-12-10T03:11:10;116.93;;;50.25;;
57832;SDS011;43667;53.036;6.740;2022-12-10T03:16:20;116.28;;;50.17;;
57832;SDS011;43667;53.036;6.740;2022-12-10T03:18:49;116.50;;;50.20;;
57832;SDS011;43667;53.036;6.740;2022-12-10T03:21:20;115.05;;;50.67;;
57832;SDS011;43667;53.036;6.740;2022-12-10T03:23:46;116.38;;;48.75;;
57832;SDS011;43667;53.036;6.740;2022-12-10T03:26:14;115.32;;;49.92;;
57832;SDS011;43667;53.036;6.740;2022-12-10T03:28:41;113.93;;;47.97;;
57832;SDS011;43667;53.036;6.740;2022-12-10T03:31:12;118.78;;;49.88;;
57832;SDS011;43667;53.036;6.740;2022-12-10T03:33:39;116.45;;;49.85;;
57832;SDS011;43667;53.036;6.740;2022-12-10T03:36:05;123.85;;;51.28;;
57832;SDS011;43667;53.036;6.740;2022-12-10T03:38:33;126.15;;;53.33;;
57832;SDS011;43667;53.036;6.740;2022-12-10T03:40:59;125.10;;;51.20;;
57832;SDS011;43667;53.036;6.740;2022-12-10T03:43:25;126.30;;;52.13;;
57832;SDS011;43667;53.036;6.740;2022-12-10T03:45:50;132.93;;;53.40;;
57832;SDS011;43667;53.036;6.740;2022-12-10T03:48:16;117.68;;;49.30;;
57832;SDS011;43667;53.036;6.740;2022-12-10T03:50:41;118.22;;;50.17;;
57832;SDS011;43667;53.036;6.740;2022-12-10T03:53:07;123.75;;;50.28;;
57832;SDS011;43667;53.036;6.740;2022-12-10T03:55:33;117.80;;;50.67;;
57832;SDS011;43667;53.036;6.740;2022-12-10T03:57:58;111.05;;;48.78;;
57832;SDS011;43667;53.036;6.740;2022-12-10T04:00:24;114.70;;;49.58;;
57832;SDS011;43667;53.036;6.740;2022-12-10T04:02:49;119.22;;;50.50;;
57832;SDS011;43667;53.036;6.740;2022-12-10T04:05:15;122.40;;;51.22;;
57832;SDS011;43667;53.036;6.740;2022-12-10T04:07:41;113.35;;;47.78;;
57832;SDS011;43667;53.036;6.740;2022-12-10T04:10:06;117.32;;;49.65;;
57832;SDS011;43667;53.036;6.740;2022-12-10T04:12:33;114.28;;;50.38;;
57832;SDS011;43667;53.036;6.740;2022-12-10T04:14:59;121.13;;;51.58;;
57832;SDS011;43667;53.036;6.740;2022-12-10T04:20:08;126.15;;;49.22;;
57832;SDS011;43667;53.036;6.740;2022-12-10T04:22:52;107.95;;;48.33;;
57832;SDS011;43667;53.036;6.740;2022-12-10T04:25:36;112.60;;;48.38;;
57832;SDS011;43667;53.036;6.740;2022-12-10T04:28:20;112.93;;;49.08;;
57832;SDS011;43667;53.036;6.740;2022-12-10T04:30:46;108.65;;;46.65;;
57832;SDS011;43667;53.036;6.740;2022-12-10T04:33:11;108.60;;;48.08;;
57832;SDS011;43667;53.036;6.740;2022-12-10T04:35:37;113.80;;;48.67;;
57832;SDS011;43667;53.036;6.740;2022-12-10T04:38:03;119.22;;;50.05;;
57832;SDS011;43667;53.036;6.740;2022-12-10T04:40:28;115.43;;;51.22;;
57832;SDS011;43667;53.036;6.740;2022-12-10T04:42:54;127.60;;;51.53;;
57832;SDS011;43667;53.036;6.740;2022-12-10T04:45:19;123.55;;;52.28;;
57832;SDS011;43667;53.036;6.740;2022-12-10T04:47:45;124.50;;;49.63;;
57832;SDS011;43667;53.036;6.740;2022-12-10T04:50:10;117.30;;;52.92;;
57832;SDS011;43667;53.036;6.740;2022-12-10T04:52:36;132.02;;;52.75;;
57832;SDS011;43667;53.036;6.740;2022-12-10T04:55:01;128.35;;;52.50;;
57832;SDS011;43667;53.036;6.740;2022-12-10T04:57:27;126.93;;;51.78;;
57832;SDS011;43667;53.036;6.740;2022-12-10T04:59:53;127.35;;;53.50;;
57832;SDS011;43667;53.036;6.740;2022-12-10T05:02:18;131.45;;;52.03;;
57832;SDS011;43667;53.036;6.740;2022-12-10T05:04:44;130.02;;;51.50;;
57832;SDS011;43667;53.036;6.740;2022-12-10T05:07:09;124.10;;;52.00;;
57832;SDS011;43667;53.036;6.740;2022-12-10T05:09:37;137.07;;;52.70;;
57832;SDS011;43667;53.036;6.740;2022-12-10T05:12:02;128.50;;;52.38;;
57832;SDS011;43667;53.036;6.740;2022-12-10T05:14:28;144.40;;;55.55;;
57832;SDS011;43667;53.036;6.740;2022-12-10T05:16:54;135.70;;;54.45;;
57832;SDS011;43667;53.036;6.740;2022-12-10T05:19:19;132.18;;;51.70;;
57832;SDS011;43667;53.036;6.740;2022-12-10T05:21:46;142.10;;;54.30;;
57832;SDS011;43667;53.036;6.740;2022-12-10T05:24:30;123.13;;;51.05;;
57832;SDS011;43667;53.036;6.740;2022-12-10T05:26:56;129.90;;;51.40;;
57832;SDS011;43667;53.036;6.740;2022-12-10T05:29:22;119.88;;;51.25;;
57832;SDS011;43667;53.036;6.740;2022-12-10T05:31:48;116.63;;;49.13;;
57832;SDS011;43667;53.036;6.740;2022-12-10T05:34:13;129.95;;;51.60;;
57832;SDS011;43667;53.036;6.740;2022-12-10T05:36:39;124.47;;;51.77;;
57832;SDS011;43667;53.036;6.740;2022-12-10T05:39:05;119.38;;;51.63;;
57832;SDS011;43667;53.036;6.740;2022-12-10T05:41:33;125.05;;;50.60;;
57832;SDS011;43667;53.036;6.740;2022-12-10T05:44:01;120.88;;;51.42;;
57832;SDS011;43667;53.036;6.740;2022-12-10T05:46:28;129.10;;;52.73;;
57832;SDS011;43667;53.036;6.740;2022-12-10T05:48:55;136.18;;;51.78;;
57832;SDS011;43667;53.036;6.740;2022-12-10T05:51:22;126.97;;;51.08;;
57832;SDS011;43667;53.036;6.740;2022-12-10T05:53:50;132.85;;;54.33;;
57832;SDS011;43667;53.036;6.740;2022-12-10T05:56:17;133.02;;;52.92;;
57832;SDS011;43667;53.036;6.740;2022-12-10T05:58:46;120.75;;;51.83;;
57832;SDS011;43667;53.036;6.740;2022-12-10T06:01:14;113.53;;;51.15;;
57832;SDS011;43667;53.036;6.740;2022-12-10T06:03:44;125.75;;;52.65;;
57832;SDS011;43667;53.036;6.740;2022-12-10T06:06:11;124.32;;;50.22;;
57832;SDS011;43667;53.036;6.740;2022-12-10T06:08:37;124.90;;;52.20;;
57832;SDS011;43667;53.036;6.740;2022-12-10T06:11:04;127.63;;;51.33;;
57832;SDS011;43667;53.036;6.740;2022-12-10T06:13:31;117.35;;;50.88;;
57832;SDS011;43667;53.036;6.740;2022-12-10T06:15:56;114.95;;;49.28;;
57832;SDS011;43667;53.036;6.740;2022-12-10T06:18:22;117.80;;;51.67;;
57832;SDS011;43667;53.036;6.740;2022-12-10T06:20:47;119.47;;;50.00;;
57832;SDS011;43667;53.036;6.740;2022-12-10T06:23:13;118.22;;;51.80;;
57832;SDS011;43667;53.036;6.740;2022-12-10T06:25:39;118.22;;;49.60;;
57832;SDS011;43667;53.036;6.740;2022-12-10T06:28:05;122.65;;;51.38;;
57832;SDS011;43667;53.036;6.740;2022-12-10T06:30:31;115.90;;;52.10;;
57832;SDS011;43667;53.036;6.740;2022-12-10T06:32:57;119.35;;;50.72;;
57832;SDS011;43667;53.036;6.740;2022-12-10T06:35:22;114.63;;;49.33;;
57832;SDS011;43667;53.036;6.740;2022-12-10T06:37:48;122.25;;;51.10;;
57832;SDS011;43667;53.036;6.740;2022-12-10T06:40:14;126.00;;;53.53;;
57832;SDS011;43667;53.036;6.740;2022-12-10T06:42:40;125.67;;;52.30;;
57832;SDS011;43667;53.036;6.740;2022-12-10T06:45:06;127.20;;;54.67;;
57832;SDS011;43667;53.036;6.740;2022-12-10T06:47:32;128.90;;;53.22;;
57832;SDS011;43667;53.036;6.740;2022-12-10T06:49:57;134.13;;;52.38;;
57832;SDS011;43667;53.036;6.740;2022-12-10T06:52:23;140.80;;;54.27;;
57832;SDS011;43667;53.036;6.740;2022-12-10T06:54:48;139.70;;;54.22;;
57832;SDS011;43667;53.036;6.740;2022-12-10T06:57:14;137.02;;;53.85;;
57832;SDS011;43667;53.036;6.740;2022-12-10T06:59:40;132.70;;;52.33;;
57832;SDS011;43667;53.036;6.740;2022-12-10T07:02:05;128.23;;;52.42;;
57832;SDS011;43667;53.036;6.740;2022-12-10T07:04:32;126.22;;;55.08;;
57832;SDS011;43667;53.036;6.740;2022-12-10T07:06:58;135.50;;;55.25;;
57832;SDS011;43667;53.036;6.740;2022-12-10T07:09:23;134.30;;;55.50;;
57832;SDS011;43667;53.036;6.740;2022-12-10T07:11:49;129.18;;;54.85;;
57832;SDS011;43667;53.036;6.740;2022-12-10T07:14:15;130.30;;;53.75;;
57832;SDS011;43667;53.036;6.740;2022-12-10T07:16:41;126.43;;;56.20;;
57832;SDS011;43667;53.036;6.740;2022-12-10T07:19:08;137.88;;;56.72;;
57832;SDS011;43667;53.036;6.740;2022-12-10T07:21:34;130.52;;;53.75;;
57832;SDS011;43667;53.036;6.740;2022-12-10T07:24:04;130.25;;;54.63;;
57832;SDS011;43667;53.036;6.740;2022-12-10T07:26:33;141.88;;;55.53;;
57832;SDS011;43667;53.036;6.740;2022-12-10T07:29:00;123.90;;;54.70;;
57832;SDS011;43667;53.036;6.740;2022-12-10T07:31:27;136.32;;;54.88;;
57832;SDS011;43667;53.036;6.740;2022-12-10T07:33:53;126.68;;;53.72;;
57832;SDS011;43667;53.036;6.740;2022-12-10T07:36:22;124.33;;;55.40;;
57832;SDS011;43667;53.036;6.740;2022-12-10T07:38:48;120.97;;;54.38;;
57832;SDS011;43667;53.036;6.740;2022-12-10T07:41:14;147.02;;;56.45;;
57832;SDS011;43667;53.036;6.740;2022-12-10T07:43:41;130.77;;;54.08;;
57832;SDS011;43667;53.036;6.740;2022-12-10T07:46:10;135.97;;;56.07;;
57832;SDS011;43667;53.036;6.740;2022-12-10T07:48:38;136.13;;;55.57;;
57832;SDS011;43667;53.036;6.740;2022-12-10T07:51:05;128.93;;;56.60;;
57832;SDS011;43667;53.036;6.740;2022-12-10T07:53:31;138.77;;;56.47;;
57832;SDS011;43667;53.036;6.740;2022-12-10T07:55:57;144.60;;;59.97;;
57832;SDS011;43667;53.036;6.740;2022-12-10T07:58:22;138.98;;;57.63;;
57832;SDS011;43667;53.036;6.740;2022-12-10T08:00:48;128.95;;;56.13;;
57832;SDS011;43667;53.036;6.740;2022-12-10T08:03:14;140.13;;;58.00;;
57832;SDS011;43667;53.036;6.740;2022-12-10T08:05:39;140.32;;;57.65;;
57832;SDS011;43667;53.036;6.740;2022-12-10T08:08:05;133.18;;;56.33;;
57832;SDS011;43667;53.036;6.740;2022-12-10T08:10:33;134.60;;;56.95;;
57832;SDS011;43667;53.036;6.740;2022-12-10T08:12:59;142.05;;;58.22;;
57832;SDS011;43667;53.036;6.740;2022-12-10T08:15:24;131.38;;;55.70;;
57832;SDS011;43667;53.036;6.740;2022-12-10T08:17:50;137.68;;;56.47;;
57832;SDS011;43667;53.036;6.740;2022-12-10T08:20:16;133.75;;;56.13;;
57832;SDS011;43667;53.036;6.740;2022-12-10T08:22:41;125.93;;;57.20;;
57832;SDS011;43667;53.036;6.740;2022-12-10T08:25:07;125.57;;;54.85;;
57832;SDS011;43667;53.036;6.740;2022-12-10T08:27:32;139.35;;;56.13;;
57832;SDS011;43667;53.036;6.740;2022-12-10T08:29:58;123.63;;;56.20;;
57832;SDS011;43667;53.036;6.740;2022-12-10T08:32:24;134.32;;;54.97;;
57832;SDS011;43667;53.036;6.740;2022-12-10T08:34:49;128.25;;;54.42;;
57832;SDS011;43667;53.036;6.740;2022-12-10T08:37:15;122.90;;;56.20;;
57832;SDS011;43667;53.036;6.740;2022-12-10T08:39:40;127.90;;;55.05;;
57832;SDS011;43667;53.036;6.740;2022-12-10T08:42:06;124.53;;;53.90;;
57832;SDS011;43667;53.036;6.740;2022-12-10T08:44:31;123.13;;;54.03;;
57832;SDS011;43667;53.036;6.740;2022-12-10T08:46:57;126.75;;;54.72;;
57832;SDS011;43667;53.036;6.740;2022-12-10T08:49:23;124.07;;;54.72;;
57832;SDS011;43667;53.036;6.740;2022-12-10T08:51:48;131.40;;;56.20;;
57832;SDS011;43667;53.036;6.740;2022-12-10T08:54:14;121.22;;;53.53;;
57832;SDS011;43667;53.036;6.740;2022-12-10T08:56:39;131.02;;;56.60;;
57832;SDS011;43667;53.036;6.740;2022-12-10T08:59:05;124.40;;;54.90;;
57832;SDS011;43667;53.036;6.740;2022-12-10T09:01:32;134.50;;;56.80;;
57832;SDS011;43667;53.036;6.740;2022-12-10T09:03:57;129.48;;;56.78;;
57832;SDS011;43667;53.036;6.740;2022-12-10T09:06:24;118.70;;;51.60;;
57832;SDS011;43667;53.036;6.740;2022-12-10T09:08:50;129.77;;;56.50;;
57832;SDS011;43667;53.036;6.740;2022-12-10T09:11:17;127.93;;;56.92;;
57832;SDS011;43667;53.036;6.740;2022-12-10T09:13:54;130.30;;;58.50;;
57832;SDS011;43667;53.036;6.740;2022-12-10T09:16:19;132.38;;;56.63;;
57832;SDS011;43667;53.036;6.740;2022-12-10T09:18:45;130.18;;;58.30;;
57832;SDS011;43667;53.036;6.740;2022-12-10T09:21:12;134.85;;;58.58;;
57832;SDS011;43667;53.036;6.740;2022-12-10T09:23:39;142.68;;;60.83;;
57832;SDS011;43667;53.036;6.740;2022-12-10T09:26:09;141.70;;;63.22;;
57832;SDS011;43667;53.036;6.740;2022-12-10T09:28:37;148.25;;;63.75;;
57832;SDS011;43667;53.036;6.740;2022-12-10T09:31:03;138.10;;;59.65;;
57832;SDS011;43667;53.036;6.740;2022-12-10T09:33:31;146.57;;;61.30;;
57832;SDS011;43667;53.036;6.740;2022-12-10T09:35:57;152.15;;;62.08;;
57832;SDS011;43667;53.036;6.740;2022-12-10T09:38:23;140.02;;;58.83;;
57832;SDS011;43667;53.036;6.740;2022-12-10T09:41:02;158.68;;;63.47;;
57832;SDS011;43667;53.036;6.740;2022-12-10T09:43:39;155.40;;;61.33;;
57832;SDS011;43667;53.036;6.740;2022-12-10T09:46:22;136.88;;;58.50;;
57832;SDS011;43667;53.036;6.740;2022-12-10T09:51:50;129.60;;;58.47;;
57832;SDS011;43667;53.036;6.740;2022-12-10T09:54:32;122.35;;;55.30;;
57832;SDS011;43667;53.036;6.740;2022-12-10T09:57:01;146.43;;;59.22;;
57832;SDS011;43667;53.036;6.740;2022-12-10T10:07:31;133.75;;;59.13;;
57832;SDS011;43667;53.036;6.740;2022-12-10T10:10:06;128.93;;;56.92;;
57832;SDS011;43667;53.036;6.740;2022-12-10T10:12:46;136.93;;;58.60;;
57832;SDS011;43667;53.036;6.740;2022-12-10T10:15:14;122.90;;;55.90;;
57832;SDS011;43667;53.036;6.740;2022-12-10T10:17:43;127.70;;;56.92;;
57832;SDS011;43667;53.036;6.740;2022-12-10T10:20:12;126.60;;;55.13;;
57832;SDS011;43667;53.036;6.740;2022-12-10T10:22:39;146.07;;;58.58;;
57832;SDS011;43667;53.036;6.740;2022-12-10T10:25:06;137.15;;;56.75;;
57832;SDS011;43667;53.036;6.740;2022-12-10T10:27:38;116.32;;;53.03;;
57832;SDS011;43667;53.036;6.740;2022-12-10T10:30:04;121.78;;;53.60;;
57832;SDS011;43667;53.036;6.740;2022-12-10T10:35:00;128.65;;;55.40;;
57832;SDS011;43667;53.036;6.740;2022-12-10T10:39:55;143.20;;;58.10;;
57832;SDS011;43667;53.036;6.740;2022-12-10T10:42:38;133.75;;;57.90;;
57832;SDS011;43667;53.036;6.740;2022-12-10T10:45:51;140.05;;;56.25;;
57832;SDS011;43667;53.036;6.740;2022-12-10T10:48:04;123.07;;;55.58;;
57832;SDS011;43667;53.036;6.740;2022-12-10T10:50:30;149.38;;;58.13;;
57832;SDS011;43667;53.036;6.740;2022-12-10T10:53:12;124.45;;;54.72;;
57832;SDS011;43667;53.036;6.740;2022-12-10T10:55:50;134.60;;;58.70;;
57832;SDS011;43667;53.036;6.740;2022-12-10T10:58:18;118.18;;;55.83;;
57832;SDS011;43667;53.036;6.740;2022-12-10T11:01:02;147.00;;;60.35;;
57832;SDS011;43667;53.036;6.740;2022-12-10T11:03:30;132.10;;;57.40;;
57832;SDS011;43667;53.036;6.740;2022-12-10T11:05:59;132.57;;;57.90;;
57832;SDS011;43667;53.036;6.740;2022-12-10T11:08:28;112.25;;;52.28;;
57832;SDS011;43667;53.036;6.740;2022-12-10T11:11:05;123.15;;;54.28;;
57832;SDS011;43667;53.036;6.740;2022-12-10T11:13:35;118.68;;;54.05;;
57832;SDS011;43667;53.036;6.740;2022-12-10T11:18:56;116.53;;;52.92;;
57832;SDS011;43667;53.036;6.740;2022-12-10T11:21:27;116.35;;;52.63;;
57832;SDS011;43667;53.036;6.740;2022-12-10T11:23:58;121.93;;;53.15;;
57832;SDS011;43667;53.036;6.740;2022-12-10T11:41:26;132.45;;;56.90;;
57832;SDS011;43667;53.036;6.740;2022-12-10T11:44:47;142.60;;;57.85;;
57832;SDS011;43667;53.036;6.740;2022-12-10T11:47:13;133.68;;;57.92;;
57832;SDS011;43667;53.036;6.740;2022-12-10T12:09:14;137.88;;;54.97;;
57832;SDS011;43667;53.036;6.740;2022-12-10T12:14:32;114.65;;;50.92;;
57832;SDS011;43667;53.036;6.740;2022-12-10T12:17:03;110.28;;;48.53;;
57832;SDS011;43667;53.036;6.740;2022-12-10T12:19:50;117.55;;;49.90;;
57832;SDS011;43667;53.036;6.740;2022-12-10T12:22:28;110.10;;;49.80;;
57832;SDS011;43667;53.036;6.740;2022-12-10T12:24:59;124.93;;;49.28;;
57832;SDS011;43667;53.036;6.740;2022-12-10T12:30:30;123.80;;;52.22;;
57832;SDS011;43667;53.036;6.740;2022-12-10T12:33:02;126.70;;;53.20;;
57832;SDS011;43667;53.036;6.740;2022-12-10T12:35:44;121.38;;;50.55;;
57832;SDS011;43667;53.036;6.740;2022-12-10T12:41:03;130.07;;;49.28;;
57832;SDS011;43667;53.036;6.740;2022-12-10T12:46:09;119.45;;;49.38;;
57832;SDS011;43667;53.036;6.740;2022-12-10T12:54:25;117.55;;;49.85;;
57832;SDS011;43667;53.036;6.740;2022-12-10T12:56:58;123.30;;;49.15;;
57832;SDS011;43667;53.036;6.740;2022-12-10T13:05:15;122.78;;;53.80;;
57832;SDS011;43667;53.036;6.740;2022-12-10T13:10:52;111.28;;;49.28;;
57832;SDS011;43667;53.036;6.740;2022-12-10T13:13:35;118.40;;;48.45;;
57832;SDS011;43667;53.036;6.740;2022-12-10T13:24:20;116.70;;;49.95;;
57832;SDS011;43667;53.036;6.740;2022-12-10T13:30:02;113.47;;;47.15;;
57832;SDS011;43667;53.036;6.740;2022-12-10T13:42:55;124.53;;;50.65;;
57832;SDS011;43667;53.036;6.740;2022-12-10T13:45:42;111.15;;;45.75;;
57832;SDS011;43667;53.036;6.740;2022-12-10T13:55:59;123.22;;;48.55;;
57832;SDS011;43667;53.036;6.740;2022-12-10T14:04:22;106.18;;;44.83;;
57832;SDS011;43667;53.036;6.740;2022-12-10T14:07:04;107.28;;;46.45;;
57832;SDS011;43667;53.036;6.740;2022-12-10T14:09:36;96.53;;;40.45;;
57832;SDS011;43667;53.036;6.740;2022-12-10T14:12:10;121.70;;;52.17;;
57832;SDS011;43667;53.036;6.740;2022-12-10T14:14:52;101.55;;;44.63;;
57832;SDS011;43667;53.036;6.740;2022-12-10T14:17:35;95.18;;;40.78;;
57832;SDS011;43667;53.036;6.740;2022-12-10T14:20:04;95.53;;;39.63;;
57832;SDS011;43667;53.036;6.740;2022-12-10T14:22:33;91.15;;;39.90;;
57832;SDS011;43667;53.036;6.740;2022-12-10T14:25:03;92.50;;;39.10;;
57832;SDS011;43667;53.036;6.740;2022-12-10T14:27:50;108.50;;;43.78;;
57832;SDS011;43667;53.036;6.740;2022-12-10T14:30:22;157.20;;;58.85;;
57832;SDS011;43667;53.036;6.740;2022-12-10T14:32:49;111.72;;;42.65;;
57832;SDS011;43667;53.036;6.740;2022-12-10T14:35:20;123.32;;;46.45;;
57832;SDS011;43667;53.036;6.740;2022-12-10T14:37:47;117.90;;;43.25;;
57832;SDS011;43667;53.036;6.740;2022-12-10T14:40:25;116.97;;;42.30;;
57832;SDS011;43667;53.036;6.740;2022-12-10T14:42:59;114.80;;;42.85;;
57832;SDS011;43667;53.036;6.740;2022-12-10T14:45:52;126.10;;;44.92;;
57832;SDS011;43667;53.036;6.740;2022-12-10T14:48:21;120.18;;;45.80;;
57832;SDS011;43667;53.036;6.740;2022-12-10T14:50:48;134.13;;;47.38;;
57832;SDS011;43667;53.036;6.740;2022-12-10T14:53:15;132.73;;;46.20;;
57832;SDS011;43667;53.036;6.740;2022-12-10T14:55:44;151.68;;;50.35;;
57832;SDS011;43667;53.036;6.740;2022-12-10T14:58:18;151.18;;;49.65;;
57832;SDS011;43667;53.036;6.740;2022-12-10T15:01:09;155.90;;;50.72;;
57832;SDS011;43667;53.036;6.740;2022-12-10T15:03:43;148.63;;;50.45;;
57832;SDS011;43667;53.036;6.740;2022-12-10T15:06:12;156.25;;;50.40;;
57832;SDS011;43667;53.036;6.740;2022-12-10T15:08:41;157.73;;;51.88;;
57832;SDS011;43667;53.036;6.740;2022-12-10T15:11:10;180.65;;;53.50;;
57832;SDS011;43667;53.036;6.740;2022-12-10T15:13:41;174.68;;;51.33;;
57832;SDS011;43667;53.036;6.740;2022-12-10T15:16:16;167.38;;;53.33;;
57832;SDS011;43667;53.036;6.740;2022-12-10T15:18:43;171.75;;;53.72;;
57832;SDS011;43667;53.036;6.740;2022-12-10T15:21:14;175.43;;;53.78;;
57832;SDS011;43667;53.036;6.740;2022-12-10T15:23:42;188.05;;;55.95;;
57832;SDS011;43667;53.036;6.740;2022-12-10T15:28:36;195.13;;;56.75;;
57832;SDS011;43667;53.036;6.740;2022-12-10T15:33:42;192.68;;;56.47;;
57832;SDS011;43667;53.036;6.740;2022-12-10T15:36:24;183.63;;;55.85;;
57832;SDS011;43667;53.036;6.740;2022-12-10T15:39:04;190.63;;;55.60;;
57832;SDS011;43667;53.036;6.740;2022-12-10T15:41:50;175.00;;;53.70;;
57832;SDS011;43667;53.036;6.740;2022-12-10T15:46:52;177.57;;;55.25;;
57832;SDS011;43667;53.036;6.740;2022-12-10T15:49:34;171.35;;;54.40;;
57832;SDS011;43667;53.036;6.740;2022-12-10T15:52:00;191.32;;;56.47;;
57832;SDS011;43667;53.036;6.740;2022-12-10T15:54:37;212.30;;;61.90;;
57832;SDS011;43667;53.036;6.740;2022-12-10T15:59:42;182.02;;;56.20;;
57832;SDS011;43667;53.036;6.740;2022-12-10T16:05:00;177.95;;;53.88;;
57832;SDS011;43667;53.036;6.740;2022-12-10T16:07:26;199.30;;;57.03;;
57832;SDS011;43667;53.036;6.740;2022-12-10T16:09:51;179.82;;;53.35;;
57832;SDS011;43667;53.036;6.740;2022-12-10T16:12:17;178.48;;;53.20;;
57832;SDS011;43667;53.036;6.740;2022-12-10T16:14:49;183.75;;;53.13;;
57832;SDS011;43667;53.036;6.740;2022-12-10T16:17:17;181.35;;;55.50;;
57832;SDS011;43667;53.036;6.740;2022-12-10T16:19:43;172.80;;;52.90;;
57832;SDS011;43667;53.036;6.740;2022-12-10T16:22:09;187.77;;;54.30;;
57832;SDS011;43667;53.036;6.740;2022-12-10T16:24:35;181.38;;;53.95;;
57832;SDS011;43667;53.036;6.740;2022-12-10T16:27:01;178.75;;;55.05;;
57832;SDS011;43667;53.036;6.740;2022-12-10T16:29:26;181.68;;;54.95;;
57832;SDS011;43667;53.036;6.740;2022-12-10T16:31:52;197.77;;;57.70;;
57832;SDS011;43667;53.036;6.740;2022-12-10T16:34:17;192.57;;;56.83;;
57832;SDS011;43667;53.036;6.740;2022-12-10T16:36:43;198.18;;;55.80;;
57832;SDS011;43667;53.036;6.740;2022-12-10T16:39:09;195.45;;;55.47;;
57832;SDS011;43667;53.036;6.740;2022-12-10T16:41:35;189.93;;;55.80;;
57832;SDS011;43667;53.036;6.740;2022-12-10T16:44:00;166.07;;;54.03;;
57832;SDS011;43667;53.036;6.740;2022-12-10T16:46:26;157.55;;;51.78;;
57832;SDS011;43667;53.036;6.740;2022-12-10T16:48:51;175.55;;;54.40;;